Impacts METAR Board
IDs:

KLZZ - Lampasas Arpt, TX, US

Updated at: 0200 UTC 15 Aug 2020
Potential Impact None Slight Moderate High
Time 14/14Z 14/15Z 14/16Z 14/17Z 14/18Z 14/19Z 14/20Z 14/21Z 14/22Z 14/23Z 15/00Z 15/01Z 15/02Z
Temp83 87 90 94 97 101 103 105 104 105 103 99 94
Dewpt70 68 68 66 63 61 57 57 54 55 54 54 54
Altim29.96 29.96 29.96 29.95 29.94 29.91 29.88 29.86 29.84 29.83 29.82 29.83 29.84
VIS10 10 10 10 10 10 10 10 10 10 10 10 10
CIG-- -- -- -- -- -- -- -- -- -- -- -- --
CoverCLRCLRCLRCLRCLRCLRCLRCLRCLRCLRCLRCLRCLR
FltCatVFRVFRVFRVFRVFRVFRVFRVFRVFRVFRVFRVFRVFR
WX--------------------------
WDir220220240220200240260170230150190170170
WSpd8 11 7 8 10 7 9 7 5 6 6 6 6
WGst-- -- -- -- -- -- -- -- -- -- -- -- --
Raw hourly METARs
KLZZ 141355Z AUTO 22008KT 10SM CLR 28/21 A2996 RMK AO2 T02840212
KLZZ 141455Z AUTO 22011KT 10SM CLR 31/20 A2996 RMK AO2 T03080201
KLZZ 141555Z AUTO 24007KT 10SM CLR 32/20 A2996 RMK AO2 T03240201
KLZZ 141655Z AUTO 22008KT 10SM CLR 35/19 A2995 RMK AO2 T03460189
KLZZ 141755Z AUTO 20010KT 10SM CLR 36/17 A2994 RMK AO2 T03610171 10362 20255
KLZZ 141855Z AUTO 24007KT 210V280 10SM CLR 38/16 A2991 RMK AO2 T03810160
KLZZ 141955Z AUTO 26009KT 10SM CLR 39/14 A2988 RMK AO2 T03920141
KLZZ 142055Z AUTO 17007KT 150V230 10SM CLR 40/14 A2986 RMK AO2 T04030137
KLZZ 142155Z AUTO 23005KT 10SM CLR 40/12 A2984 RMK AO2 T04000121
KLZZ 142255Z AUTO 15006KT 10SM CLR 41/13 A2983 RMK AO2 T04050128
KLZZ 142355Z AUTO 19006KT 10SM CLR 40/12 A2982 RMK AO2 T03950121 10409 20360
KLZZ 150055Z AUTO 17006KT 10SM CLR 37/12 A2983 RMK AO2 T03740120
KLZZ 150155Z AUTO 17006KT 10SM CLR 35/12 A2984 RMK AO2 T03470124